Time;durP1;ratioP1;P1;durP2;ratioP2;P2;SDS_P1;SDS_P2;PMS_P1;PMS_P2;Temp;Humidity;BMP_temperature;BMP_pressure;BME280_temperature;BME280_humidity;BME280_pressure;Samples;Min_cycle;Max_cycle;Signal;HPM_P1;HPM_P2
2021/04/07 00:00:51;;;;;;;1.40;1.27;;;5.30;1.00;;;;;;5054711;28;20243;-80
2021/04/07 00:03:18;;;;;;;1.30;1.23;;;5.20;1.00;;;;;;5060361;28;20681;-80
2021/04/07 00:05:45;;;;;;;3.75;1.50;;;5.30;1.00;;;;;;5058233;28;20202;-83
2021/04/07 00:08:18;;;;;;;1.40;1.30;;;5.20;1.00;;;;;;5054499;28;20232;-78
2021/04/07 00:10:46;;;;;;;1.27;1.05;;;5.20;1.00;;;;;;5054391;28;20200;-82
2021/04/07 00:13:15;;;;;;;1.10;1.10;;;5.20;1.00;;;;;;5060533;28;20234;-79
2021/04/07 00:15:43;;;;;;;3.73;1.30;;;5.30;1.00;;;;;;5057475;28;20225;-79
2021/04/07 00:18:10;;;;;;;2.13;1.10;;;5.30;1.00;;;;;;5065645;28;20477;-83
2021/04/07 00:20:38;;;;;;;1.67;1.15;;;5.30;1.00;;;;;;5051116;28;20208;-78
2021/04/07 00:23:06;;;;;;;1.48;1.20;;;5.40;1.00;;;;;;5053735;28;21067;-79
2021/04/07 00:25:33;;;;;;;1.40;1.20;;;5.20;1.00;;;;;;5055534;28;20207;-78
2021/04/07 00:28:04;;;;;;;1.20;1.10;;;5.20;1.00;;;;;;5061368;28;20473;-78
2021/04/07 00:30:34;;;;;;;1.40;0.90;;;5.10;1.00;;;;;;5054558;28;20555;-77
2021/04/07 00:33:01;;;;;;;3.23;1.13;;;5.30;1.00;;;;;;5058749;28;20491;-76
2021/04/07 00:35:29;;;;;;;1.65;1.25;;;5.00;1.00;;;;;;5058269;28;20472;-79
2021/04/07 00:37:56;;;;;;;3.65;1.20;;;5.00;1.00;;;;;;5046971;28;20223;-77
2021/04/07 00:40:24;;;;;;;1.00;0.82;;;5.00;1.00;;;;;;5052086;28;20217;-77
2021/04/07 00:42:53;;;;;;;1.80;1.10;;;5.00;1.00;;;;;;5052483;28;20236;-81
2021/04/07 00:45:22;;;;;;;1.50;1.20;;;5.00;1.00;;;;;;5053422;28;20211;-79
2021/04/07 00:47:50;;;;;;;3.47;1.20;;;4.90;1.00;;;;;;5056864;28;20642;-81
2021/04/07 00:50:20;;;;;;;1.73;1.10;;;5.00;1.00;;;;;;5057412;28;20242;-79
2021/04/07 00:52:47;;;;;;;1.33;1.23;;;4.90;1.00;;;;;;5057956;28;20489;-78
2021/04/07 00:55:17;;;;;;;2.20;1.20;;;4.90;1.00;;;;;;5055420;28;20465;-78
2021/04/07 00:57:45;;;;;;;1.80;1.02;;;4.80;1.00;;;;;;5062380;28;20670;-78
2021/04/07 01:00:13;;;;;;;1.25;1.00;;;4.90;1.00;;;;;;5059233;28;20217;-78
2021/04/07 01:02:42;;;;;;;2.03;1.58;;;4.90;1.00;;;;;;5056169;28;20237;-78
2021/04/07 01:05:10;;;;;;;1.07;1.07;;;4.90;1.00;;;;;;5053050;28;20216;-82
2021/04/07 01:07:38;;;;;;;1.40;1.25;;;4.90;1.00;;;;;;5057188;28;20516;-77
2021/04/07 01:10:07;;;;;;;1.33;1.10;;;4.90;1.00;;;;;;5056660;28;20312;-82
2021/04/07 01:12:35;;;;;;;2.45;1.20;;;4.90;1.00;;;;;;5049003;28;20694;-81
2021/04/07 01:15:03;;;;;;;1.80;1.30;;;4.90;1.00;;;;;;5046982;28;20292;-80
2021/04/07 01:17:30;;;;;;;1.35;1.25;;;4.80;1.00;;;;;;5051467;28;20664;-79
2021/04/07 01:20:00;;;;;;;2.03;1.20;;;4.90;1.00;;;;;;5052313;28;20215;-79
2021/04/07 01:22:32;;;;;;;1.48;1.38;;;4.90;1.00;;;;;;5054562;28;20244;-81
2021/04/07 01:25:00;;;;;;;1.67;1.15;;;4.80;1.00;;;;;;5056184;28;20686;-80
2021/04/07 01:27:27;;;;;;;1.00;1.00;;;4.80;1.00;;;;;;5066292;28;20211;-79
2021/04/07 01:29:55;;;;;;;1.20;1.10;;;4.80;1.00;;;;;;5061808;28;20241;-81
2021/04/07 01:32:22;;;;;;;3.45;1.50;;;4.70;1.00;;;;;;5059372;28;20227;-79
2021/04/07 01:34:49;;;;;;;1.47;1.37;;;4.80;1.00;;;;;;5048016;28;20211;-80
2021/04/07 01:37:17;;;;;;;1.52;1.42;;;4.90;1.00;;;;;;5061481;28;20463;-80
2021/04/07 01:39:44;;;;;;;2.35;1.70;;;4.90;1.00;;;;;;5053672;28;20215;-79
2021/04/07 01:42:12;;;;;;;1.40;1.20;;;4.80;1.00;;;;;;5055461;28;20225;-80
2021/04/07 01:44:41;;;;;;;1.10;1.10;;;4.80;1.00;;;;;;5051122;28;20500;-81
2021/04/07 01:47:09;;;;;;;1.60;1.25;;;4.90;1.00;;;;;;5056562;28;20213;-81
2021/04/07 01:49:36;;;;;;;3.10;1.50;;;4.70;1.00;;;;;;5057128;28;20362;-81
2021/04/07 01:52:04;;;;;;;1.40;1.20;;;4.80;1.00;;;;;;5052860;28;20235;-81
2021/04/07 01:54:31;;;;;;;1.92;1.20;;;4.80;1.00;;;;;;5060658;28;20249;-78
2021/04/07 01:56:59;;;;;;;1.50;1.25;;;4.80;1.00;;;;;;5063198;28;20213;-78
2021/04/07 01:59:30;;;;;;;1.75;1.65;;;4.80;1.00;;;;;;5069579;28;20249;-82
2021/04/07 02:01:58;;;;;;;2.83;1.40;;;4.80;1.00;;;;;;5061085;28;20235;-81
2021/04/07 02:04:27;;;;;;;2.00;1.50;;;4.80;1.00;;;;;;5065766;28;20202;-78
2021/04/07 02:06:57;;;;;;;3.83;1.70;;;5.00;1.00;;;;;;5058541;28;20229;-79
2021/04/07 02:09:25;;;;;;;1.80;1.40;;;4.80;1.00;;;;;;5066404;28;20203;-81
2021/04/07 02:11:54;;;;;;;1.23;1.13;;;4.80;1.00;;;;;;5059127;28;20227;-80
2021/04/07 02:14:22;;;;;;;1.50;1.40;;;4.60;1.00;;;;;;5059073;28;20217;-80
2021/04/07 02:16:52;;;;;;;1.80;1.70;;;4.80;1.00;;;;;;5066428;28;20217;-79
2021/04/07 02:19:21;;;;;;;5.25;2.40;;;4.70;1.00;;;;;;5062895;28;20214;-80
2021/04/07 02:21:53;;;;;;;2.45;1.40;;;4.80;1.00;;;;;;5055288;28;20237;-86
2021/04/07 02:24:20;;;;;;;1.60;1.50;;;4.80;1.00;;;;;;5062712;28;20218;-81
2021/04/07 02:26:48;;;;;;;1.90;1.67;;;4.80;1.00;;;;;;5066262;28;20935;-78
2021/04/07 02:29:15;;;;;;;2.50;1.85;;;4.80;1.00;;;;;;5052426;28;20540;-78
2021/04/07 02:31:42;;;;;;;2.10;1.50;;;4.70;1.00;;;;;;5068654;28;20257;-77
2021/04/07 02:34:11;;;;;;;4.07;1.63;;;4.70;1.00;;;;;;5056858;28;20528;-82
2021/04/07 02:36:38;;;;;;;1.70;1.52;;;4.60;1.00;;;;;;5065725;28;20466;-79
2021/04/07 02:39:06;;;;;;;1.40;1.30;;;4.60;1.00;;;;;;5055241;28;20227;-79
2021/04/07 02:41:33;;;;;;;1.50;1.40;;;4.70;1.00;;;;;;5051914;28;20244;-78
2021/04/07 02:44:00;;;;;;;1.90;1.52;;;4.80;1.00;;;;;;5061488;28;22032;-81
2021/04/07 02:46:28;;;;;;;2.95;1.90;;;4.50;1.00;;;;;;5059431;28;20218;-79
2021/04/07 02:48:55;;;;;;;1.80;1.33;;;4.70;1.00;;;;;;5062857;28;20207;-79
2021/04/07 02:51:23;;;;;;;3.35;1.58;;;4.50;1.00;;;;;;5061736;28;20249;-80
2021/04/07 02:53:50;;;;;;;2.70;1.95;;;4.60;1.00;;;;;;5058975;28;20221;-78
2021/04/07 02:56:17;;;;;;;1.40;1.30;;;4.80;1.00;;;;;;5054327;28;20949;-81
2021/04/07 02:58:44;;;;;;;1.70;1.60;;;4.60;1.00;;;;;;5061824;28;20613;-84
2021/04/07 03:01:12;;;;;;;2.15;1.60;;;4.60;1.00;;;;;;5062361;28;20220;-82
2021/04/07 03:03:39;;;;;;;1.75;1.65;;;4.60;1.00;;;;;;5064662;28;20236;-80
2021/04/07 03:06:06;;;;;;;1.63;1.52;;;4.60;1.00;;;;;;5064489;28;20228;-78
2021/04/07 03:08:34;;;;;;;1.83;1.65;;;4.70;1.00;;;;;;5059906;28;20217;-80
2021/04/07 03:11:02;;;;;;;1.65;1.55;;;4.70;1.00;;;;;;5060102;28;20677;-80
2021/04/07 03:13:29;;;;;;;1.80;1.60;;;4.70;1.00;;;;;;5066131;28;20599;-82
2021/04/07 03:15:57;;;;;;;2.20;1.90;;;4.60;1.00;;;;;;5057691;28;20207;-78
2021/04/07 03:18:24;;;;;;;1.67;1.58;;;4.50;1.00;;;;;;5056767;28;20265;-80
2021/04/07 03:20:51;;;;;;;2.15;2.05;;;4.60;1.00;;;;;;5053305;28;20460;-78
2021/04/07 03:23:19;;;;;;;1.85;1.50;;;4.60;1.00;;;;;;5061237;28;20975;-79
2021/04/07 03:25:47;;;;;;;2.15;1.30;;;4.50;1.00;;;;;;5051403;28;20215;-81
2021/04/07 03:28:14;;;;;;;2.20;1.60;;;4.60;1.00;;;;;;5061207;28;20217;-79
2021/04/07 03:30:50;;;;;;;2.33;1.50;;;4.80;1.00;;;;;;5057628;28;20219;-80
2021/04/07 03:33:18;;;;;;;2.53;1.70;;;4.50;1.00;;;;;;5063259;28;21014;-80
2021/04/07 03:35:46;;;;;;;2.30;1.77;;;4.60;1.00;;;;;;5053049;28;20753;-79
2021/04/07 03:38:13;;;;;;;1.67;1.33;;;4.40;1.00;;;;;;5062604;28;20478;-79
2021/04/07 03:40:41;;;;;;;2.70;1.40;;;4.20;1.00;;;;;;5054083;28;20239;-81
2021/04/07 03:43:10;;;;;;;1.35;1.25;;;4.20;1.00;;;;;;5060348;28;20234;-78
2021/04/07 03:45:38;;;;;;;1.73;1.60;;;4.30;1.00;;;;;;5062446;28;20216;-82
2021/04/07 03:48:06;;;;;;;1.70;1.60;;;4.60;1.00;;;;;;5062684;28;20220;-81
2021/04/07 03:50:33;;;;;;;3.30;1.85;;;4.40;1.00;;;;;;5051855;28;20230;-81
2021/04/07 03:53:00;;;;;;;3.08;1.60;;;4.40;1.00;;;;;;5054554;28;20233;-79
2021/04/07 03:55:27;;;;;;;2.25;1.42;;;4.30;1.00;;;;;;5053532;28;20212;-81
2021/04/07 03:57:54;;;;;;;1.70;1.60;;;4.40;1.00;;;;;;5052720;28;20215;-79
2021/04/07 04:00:23;;;;;;;2.22;1.70;;;4.40;1.00;;;;;;5059835;28;20207;-78
2021/04/07 04:02:51;;;;;;;1.20;1.10;;;4.40;1.00;;;;;;5055907;28;20251;-79
2021/04/07 04:05:18;;;;;;;2.22;1.88;;;4.30;1.00;;;;;;5059056;28;20983;-78
2021/04/07 04:07:45;;;;;;;2.03;1.80;;;4.30;1.00;;;;;;5060160;28;20201;-79
2021/04/07 04:10:13;;;;;;;2.35;1.55;;;4.40;1.00;;;;;;5058791;28;20215;-82
2021/04/07 04:12:41;;;;;;;3.03;1.90;;;4.30;1.00;;;;;;5056112;28;20413;-79
2021/04/07 04:15:10;;;;;;;1.90;1.80;;;4.50;1.00;;;;;;5063273;28;20329;-80
2021/04/07 04:17:38;;;;;;;3.35;1.50;;;4.40;1.00;;;;;;5056951;28;20215;-79
2021/04/07 04:20:07;;;;;;;4.47;2.05;;;4.50;1.00;;;;;;5054151;28;20209;-78
2021/04/07 04:22:34;;;;;;;1.80;1.25;;;4.40;1.00;;;;;;5056269;28;20237;-79
2021/04/07 04:25:02;;;;;;;1.77;1.50;;;4.40;1.00;;;;;;5052199;28;20303;-83
2021/04/07 04:27:30;;;;;;;1.95;1.63;;;4.50;1.00;;;;;;5060091;28;20211;-80
2021/04/07 04:29:57;;;;;;;1.58;1.48;;;4.50;1.00;;;;;;5052750;28;20975;-79
2021/04/07 04:32:25;;;;;;;4.32;1.88;;;4.40;1.00;;;;;;5047671;28;20281;-79
2021/04/07 04:34:53;;;;;;;2.97;1.30;;;4.60;1.00;;;;;;5049751;28;20217;-81
2021/04/07 04:37:20;;;;;;;1.73;1.63;;;4.40;1.00;;;;;;5049330;28;20216;-80
2021/04/07 04:39:47;;;;;;;1.83;1.65;;;4.40;1.00;;;;;;5057957;28;20198;-79
2021/04/07 04:42:15;;;;;;;1.95;1.35;;;4.70;1.00;;;;;;5050742;28;20242;-80
2021/04/07 04:44:43;;;;;;;1.40;1.30;;;4.60;1.00;;;;;;5062940;28;20840;-80
2021/04/07 04:47:10;;;;;;;1.33;1.23;;;4.40;1.00;;;;;;5061963;28;20239;-79
2021/04/07 04:49:49;;;;;;;1.83;1.50;;;4.40;1.00;;;;;;5052634;28;20703;-83
2021/04/07 04:52:17;;;;;;;2.75;1.55;;;4.40;1.00;;;;;;5051413;28;20396;-81
2021/04/07 04:54:45;;;;;;;1.90;1.70;;;4.70;1.00;;;;;;5056432;28;20213;-80
2021/04/07 04:57:12;;;;;;;1.70;1.20;;;4.40;1.00;;;;;;5065179;28;20215;-81
2021/04/07 04:59:39;;;;;;;1.92;1.40;;;4.50;1.00;;;;;;5058793;28;20230;-82
2021/04/07 05:02:07;;;;;;;2.20;1.40;;;4.40;1.00;;;;;;5064213;28;20590;-78
2021/04/07 05:04:34;;;;;;;1.85;1.50;;;4.50;1.00;;;;;;5061768;28;20215;-79
2021/04/07 05:07:01;;;;;;;2.65;1.50;;;4.60;1.00;;;;;;5062376;28;20307;-80
2021/04/07 05:09:30;;;;;;;2.58;1.50;;;4.50;1.00;;;;;;5050713;28;20240;-81
2021/04/07 05:11:57;;;;;;;2.28;1.35;;;4.40;1.00;;;;;;5057458;28;20247;-79
2021/04/07 05:14:24;;;;;;;2.95;1.30;;;4.50;1.00;;;;;;5066125;28;20216;-80
2021/04/07 05:16:52;;;;;;;3.88;1.40;;;4.90;1.00;;;;;;5065978;28;20211;-82
2021/04/07 05:19:19;;;;;;;2.53;1.92;;;4.80;1.00;;;;;;5061643;28;20685;-83
2021/04/07 05:21:47;;;;;;;1.60;1.27;;;4.60;1.00;;;;;;5058327;28;20230;-81
2021/04/07 05:24:14;;;;;;;1.10;1.00;;;4.50;1.00;;;;;;5076147;28;21302;-81
2021/04/07 05:26:42;;;;;;;2.53;1.50;;;4.50;1.00;;;;;;5064695;28;20268;-81
2021/04/07 05:29:09;;;;;;;3.05;1.52;;;4.50;1.00;;;;;;5060056;28;20572;-81
2021/04/07 05:31:36;;;;;;;5.75;1.30;;;4.50;1.00;;;;;;5059759;28;20256;-83
2021/04/07 05:34:03;;;;;;;1.45;1.10;;;4.50;1.00;;;;;;5059899;28;20206;-83
2021/04/07 05:36:31;;;;;;;3.75;1.42;;;4.50;1.00;;;;;;5061544;28;20224;-83
2021/04/07 05:38:58;;;;;;;1.55;1.20;;;4.50;1.00;;;;;;5062872;28;20649;-79
2021/04/07 05:41:26;;;;;;;1.42;1.33;;;4.50;1.00;;;;;;5052311;28;20232;-80
2021/04/07 05:43:55;;;;;;;1.10;1.00;;;4.60;1.00;;;;;;5059832;28;20223;-82
2021/04/07 05:46:22;;;;;;;1.30;1.20;;;4.70;1.00;;;;;;5067514;28;20213;-80
2021/04/07 05:48:49;;;;;;;2.95;1.35;;;4.60;1.00;;;;;;5061336;28;20719;-81
2021/04/07 05:51:17;;;;;;;1.40;1.30;;;4.70;1.00;;;;;;5053759;28;20211;-78
2021/04/07 05:53:44;;;;;;;1.85;1.42;;;4.90;1.00;;;;;;5057895;28;20208;-82
2021/04/07 05:56:31;;;;;;;2.10;1.67;;;4.60;1.00;;;;;;5063917;28;20222;-81
2021/04/07 05:58:59;;;;;;;2.55;1.50;;;4.50;1.00;;;;;;5068418;28;20229;-82
2021/04/07 06:01:27;;;;;;;1.85;1.35;;;4.70;1.00;;;;;;5058802;28;20245;-83
2021/04/07 06:03:55;;;;;;;2.53;1.70;;;4.50;1.00;;;;;;5054622;28;21447;-86
2021/04/07 06:06:22;;;;;;;1.70;1.60;;;4.60;1.00;;;;;;5062419;28;20244;-81
2021/04/07 06:08:49;;;;;;;2.70;1.90;;;4.70;1.00;;;;;;5057378;28;20493;-82
2021/04/07 06:11:19;;;;;;;2.15;1.60;;;4.80;1.00;;;;;;5053012;28;20207;-80
2021/04/07 06:13:46;;;;;;;3.80;1.83;;;4.80;1.00;;;;;;5068077;28;20253;-80
2021/04/07 06:16:15;;;;;;;3.37;1.67;;;4.90;1.00;;;;;;5065669;28;20219;-79
2021/04/07 06:18:43;;;;;;;2.17;1.30;;;5.00;1.00;;;;;;5055155;28;20468;-83
2021/04/07 06:21:12;;;;;;;1.83;1.50;;;5.00;1.00;;;;;;5049423;28;20559;-83
2021/04/07 06:23:41;;;;;;;2.00;1.30;;;5.20;1.00;;;;;;5052181;28;20507;-83
2021/04/07 06:26:08;;;;;;;1.80;1.20;;;5.70;1.00;;;;;;5055228;28;20387;-77
2021/04/07 06:28:35;;;;;;;3.45;1.30;;;5.20;1.00;;;;;;5056424;28;20210;-78
2021/04/07 06:31:03;;;;;;;1.90;1.67;;;5.10;1.00;;;;;;5053343;28;20209;-76
2021/04/07 06:33:34;;;;;;;2.45;2.03;;;5.20;1.00;;;;;;5051256;28;20567;-78
2021/04/07 06:36:03;;;;;;;3.17;1.30;;;5.30;1.00;;;;;;5053104;28;20557;-77
2021/04/07 06:38:32;;;;;;;2.08;1.27;;;5.20;1.00;;;;;;5043568;28;20231;-77
2021/04/07 06:41:00;;;;;;;2.03;1.60;;;5.20;1.00;;;;;;5042260;28;20754;-78
2021/04/07 06:43:29;;;;;;;2.20;1.73;;;5.20;1.00;;;;;;5045943;28;20614;-77
2021/04/07 06:45:57;;;;;;;2.30;1.60;;;5.30;1.00;;;;;;5048595;28;20476;-73
2021/04/07 06:48:25;;;;;;;1.67;1.57;;;5.30;1.00;;;;;;5050469;28;20235;-77
2021/04/07 06:50:55;;;;;;;3.45;1.90;;;5.40;1.00;;;;;;5057589;28;20459;-78
2021/04/07 06:53:24;;;;;;;2.07;1.50;;;5.30;1.00;;;;;;5052201;28;20300;-78
2021/04/07 06:55:52;;;;;;;4.75;1.60;;;5.40;1.00;;;;;;5052054;28;20467;-78
2021/04/07 06:58:19;;;;;;;1.70;1.60;;;5.50;1.00;;;;;;5043728;28;20207;-78
2021/04/07 07:00:47;;;;;;;2.40;1.50;;;5.60;1.00;;;;;;5042819;28;20510;-78
2021/04/07 07:03:16;;;;;;;2.33;1.60;;;5.70;1.00;;;;;;5055271;28;20996;-79
2021/04/07 07:05:45;;;;;;;2.93;1.70;;;5.70;1.00;;;;;;5059694;28;20972;-77
2021/04/07 07:08:16;;;;;;;3.77;1.83;;;5.50;1.00;;;;;;5051684;28;20477;-77
2021/04/07 07:10:45;;;;;;;4.20;3.67;;;5.50;1.00;;;;;;5045128;28;20471;-76
2021/04/07 07:13:17;;;;;;;2.67;1.47;;;5.40;1.00;;;;;;5042445;28;20478;-78
2021/04/07 07:15:45;;;;;;;3.03;1.50;;;5.60;1.00;;;;;;5045858;28;21089;-77
2021/04/07 07:18:20;;;;;;;3.50;1.43;;;5.50;1.00;;;;;;5044046;28;20455;-76
2021/04/07 07:20:47;;;;;;;2.17;1.30;;;5.40;1.00;;;;;;5060605;28;20492;-76
2021/04/07 07:23:22;;;;;;;2.27;1.30;;;5.40;1.00;;;;;;5047181;28;20507;-76
2021/04/07 07:26:01;;;;;;;1.90;1.80;;;5.60;1.00;;;;;;5048415;28;20475;-77
2021/04/07 07:28:40;;;;;;;2.75;1.40;;;5.50;1.00;;;;;;5048471;28;20478;-76
2021/04/07 07:31:18;;;;;;;5.03;1.60;;;5.40;1.00;;;;;;5048146;28;20208;-76
2021/04/07 07:33:45;;;;;;;2.63;1.20;;;5.40;1.00;;;;;;5054052;28;20964;-77
2021/04/07 07:36:13;;;;;;;1.17;1.05;;;5.40;1.00;;;;;;5047645;28;20220;-78
2021/04/07 07:38:46;;;;;;;1.47;1.13;;;5.40;1.00;;;;;;5050792;28;20209;-78
2021/04/07 07:41:13;;;;;;;1.57;1.10;;;5.40;1.00;;;;;;5052140;28;20968;-78
2021/04/07 07:43:41;;;;;;;3.00;1.50;;;5.50;1.00;;;;;;5047529;28;20496;-77
2021/04/07 07:46:11;;;;;;;2.40;1.10;;;5.50;1.00;;;;;;5044966;28;20467;-77
2021/04/07 07:48:40;;;;;;;4.90;1.00;;;5.60;1.00;;;;;;5050000;28;20200;-77
2021/04/07 07:51:16;;;;;;;2.13;1.10;;;5.60;1.00;;;;;;5048799;28;20525;-76
2021/04/07 07:53:45;;;;;;;1.80;1.20;;;5.60;1.00;;;;;;5046235;28;20993;-76
2021/04/07 07:56:14;;;;;;;1.55;1.20;;;5.50;1.00;;;;;;5048872;28;20481;-77
2021/04/07 07:58:43;;;;;;;1.43;1.20;;;5.50;1.00;;;;;;5045451;28;20207;-77
2021/04/07 08:01:14;;;;;;;1.48;1.20;;;5.30;1.00;;;;;;5047266;28;20983;-75
2021/04/07 08:03:43;;;;;;;2.50;1.48;;;5.20;1.00;;;;;;5049168;28;20280;-78
2021/04/07 08:06:10;;;;;;;1.83;1.10;;;5.30;1.00;;;;;;5044600;28;20215;-78
2021/04/07 08:08:48;;;;;;;1.75;1.50;;;5.30;1.00;;;;;;5053496;28;20550;-79
2021/04/07 08:11:15;;;;;;;2.08;1.13;;;5.30;1.00;;;;;;5041421;28;20221;-79
2021/04/07 08:13:46;;;;;;;3.65;1.35;;;5.40;1.00;;;;;;5043938;28;20469;-79
2021/04/07 08:16:22;;;;;;;3.30;1.03;;;5.50;1.00;;;;;;5045956;28;20341;-80
2021/04/07 08:18:50;;;;;;;2.27;1.10;;;5.50;1.00;;;;;;5046093;28;20986;-78
2021/04/07 08:21:20;;;;;;;2.40;1.43;;;5.60;1.00;;;;;;5055396;28;20620;-78
2021/04/07 08:23:54;;;;;;;2.67;1.30;;;5.90;1.00;;;;;;5046578;28;20483;-79
2021/04/07 08:26:23;;;;;;;2.37;1.10;;;5.80;1.00;;;;;;5057490;28;20848;-78
2021/04/07 08:28:52;;;;;;;1.40;1.00;;;5.80;1.00;;;;;;5045276;28;20548;-78
2021/04/07 08:31:20;;;;;;;1.20;1.10;;;5.70;1.00;;;;;;5044338;28;20467;-79
2021/04/07 08:33:49;;;;;;;2.00;1.20;;;5.70;1.00;;;;;;5050846;28;20491;-79
2021/04/07 08:36:17;;;;;;;1.43;0.97;;;5.90;1.00;;;;;;5050845;28;20477;-79
2021/04/07 08:38:45;;;;;;;2.33;0.90;;;5.80;1.00;;;;;;5055489;28;20480;-80
2021/04/07 08:41:22;;;;;;;1.60;1.03;;;5.60;1.00;;;;;;5046976;28;20472;-78
2021/04/07 08:43:52;;;;;;;1.10;1.00;;;5.50;1.00;;;;;;5053686;28;20485;-79
2021/04/07 08:46:23;;;;;;;2.20;1.40;;;5.40;1.00;;;;;;5040934;28;20453;-76
2021/04/07 08:48:51;;;;;;;1.93;1.30;;;5.40;1.00;;;;;;5042550;28;20471;-79
2021/04/07 08:51:21;;;;;;;2.08;1.38;;;5.50;1.00;;;;;;5044442;28;20474;-78
2021/04/07 08:53:50;;;;;;;2.55;1.30;;;5.50;1.00;;;;;;5039607;28;20454;-78
2021/04/07 08:56:26;;;;;;;2.00;1.25;;;5.50;1.00;;;;;;5052793;28;20212;-76
2021/04/07 08:58:55;;;;;;;2.80;1.50;;;5.40;1.00;;;;;;5047056;28;20212;-78
2021/04/07 09:01:25;;;;;;;2.80;1.20;;;5.50;1.00;;;;;;5057781;28;20519;-80
2021/04/07 09:04:05;;;;;;;4.50;1.90;;;5.50;1.00;;;;;;5047174;28;20570;-78
2021/04/07 09:06:32;;;;;;;1.23;1.13;;;5.50;1.00;;;;;;5043494;28;20578;-77
2021/04/07 09:08:59;;;;;;;2.73;1.10;;;5.50;1.00;;;;;;5056470;28;20696;-79
2021/04/07 09:11:33;;;;;;;1.05;0.93;;;5.50;1.00;;;;;;5058663;28;20488;-76
2021/04/07 09:14:04;;;;;;;4.88;1.40;;;5.40;1.00;;;;;;5057531;28;20219;-75
2021/04/07 09:16:34;;;;;;;1.08;1.00;;;5.40;1.00;;;;;;5044386;28;20215;-76
2021/04/07 09:19:17;;;;;;;1.45;1.00;;;5.40;1.00;;;;;;5053964;28;20212;-77
2021/04/07 09:21:55;;;;;;;1.67;1.57;;;5.50;1.00;;;;;;5038886;28;20318;-76
2021/04/07 09:24:26;;;;;;;1.63;1.00;;;5.50;1.00;;;;;;5046026;28;20892;-75
2021/04/07 09:26:58;;;;;;;1.77;1.13;;;5.50;1.00;;;;;;5058453;28;20238;-74
2021/04/07 09:29:25;;;;;;;1.53;1.30;;;5.60;1.00;;;;;;5050362;28;20506;-74
2021/04/07 09:31:53;;;;;;;1.63;1.53;;;5.50;1.00;;;;;;5044273;28;20509;-78
2021/04/07 09:34:21;;;;;;;3.80;1.10;;;5.50;1.00;;;;;;5042434;28;20565;-76
2021/04/07 09:36:50;;;;;;;1.60;1.50;;;5.50;1.00;;;;;;5043344;28;20470;-77
2021/04/07 09:39:22;;;;;;;1.67;1.20;;;5.40;1.00;;;;;;5054241;28;21215;-79
2021/04/07 09:41:51;;;;;;;1.00;1.00;;;5.50;1.00;;;;;;5044599;28;20568;-77
2021/04/07 09:44:19;;;;;;;1.70;1.20;;;5.50;1.00;;;;;;5045735;28;20229;-77
2021/04/07 09:46:51;;;;;;;1.30;1.20;;;5.60;1.00;;;;;;5048833;28;20460;-77
2021/04/07 09:49:19;;;;;;;2.80;1.30;;;5.90;1.00;;;;;;5060037;28;20539;-78
2021/04/07 09:51:49;;;;;;;1.27;1.17;;;5.90;1.00;;;;;;5061025;28;21017;-77
2021/04/07 09:54:21;;;;;;;4.27;1.30;;;5.70;1.00;;;;;;5052704;28;20826;-80
2021/04/07 09:56:51;;;;;;;1.40;1.30;;;5.80;1.00;;;;;;5045524;28;20448;-80
2021/04/07 09:59:20;;;;;;;2.30;1.40;;;6.10;1.00;;;;;;5048319;28;20463;-76
2021/04/07 10:01:47;;;;;;;1.50;1.20;;;6.10;1.00;;;;;;5047810;28;20494;-78
2021/04/07 10:04:14;;;;;;;3.27;1.63;;;6.10;1.00;;;;;;5049102;28;20477;-78
2021/04/07 10:06:41;;;;;;;1.83;1.17;;;6.30;1.00;;;;;;5053624;28;20501;-77
2021/04/07 10:09:10;;;;;;;2.30;1.40;;;6.00;1.00;;;;;;5052898;28;20464;-76
2021/04/07 10:11:39;;;;;;;1.47;1.13;;;6.10;1.00;;;;;;5053887;28;21233;-78
2021/04/07 10:14:07;;;;;;;3.20;1.40;;;6.00;1.00;;;;;;5051924;28;20471;-77
2021/04/07 10:16:37;;;;;;;1.77;1.17;;;6.00;1.00;;;;;;5052273;28;20523;-76
2021/04/07 10:19:09;;;;;;;3.53;1.10;;;5.80;1.00;;;;;;5054824;28;20479;-76
2021/04/07 10:21:37;;;;;;;1.40;1.00;;;5.70;1.00;;;;;;5060872;28;20898;-77
2021/04/07 10:24:06;;;;;;;19.10;1.63;;;5.70;1.00;;;;;;5059126;28;20500;-76
2021/04/07 10:26:40;;;;;;;1.50;1.17;;;5.40;1.00;;;;;;5047885;28;20478;-76
2021/04/07 10:29:08;;;;;;;1.33;1.17;;;5.40;1.00;;;;;;5055259;28;20215;-76
2021/04/07 10:31:36;;;;;;;3.07;0.90;;;5.50;1.00;;;;;;5050317;28;21129;-77
2021/04/07 10:34:06;;;;;;;1.10;1.10;;;5.60;1.00;;;;;;5051536;28;20468;-74
2021/04/07 10:36:35;;;;;;;1.20;1.10;;;5.70;1.00;;;;;;5040994;28;20502;-75
2021/04/07 10:39:11;;;;;;;1.30;1.20;;;5.70;1.00;;;;;;5048816;28;20486;-75
2021/04/07 10:41:39;;;;;;;1.77;1.10;;;5.60;1.00;;;;;;5051676;28;20596;-74
2021/04/07 10:44:07;;;;;;;1.57;0.80;;;5.80;1.00;;;;;;5046231;28;20507;-78
2021/04/07 10:46:35;;;;;;;1.10;1.03;;;5.80;1.00;;;;;;5051831;28;20512;-73
2021/04/07 10:49:02;;;;;;;3.50;1.10;;;5.70;1.00;;;;;;5046557;28;20488;-76
2021/04/07 10:51:30;;;;;;;1.40;1.10;;;5.80;1.00;;;;;;5042590;28;20234;-74
2021/04/07 10:53:59;;;;;;;1.93;1.10;;;6.00;1.00;;;;;;5047273;28;20493;-75
2021/04/07 10:56:28;;;;;;;1.70;1.27;;;5.90;1.00;;;;;;5051756;28;20483;-76
2021/04/07 10:58:59;;;;;;;5.17;1.50;;;5.80;1.00;;;;;;5048411;28;20467;-75
2021/04/07 11:01:28;;;;;;;2.60;1.30;;;5.90;1.00;;;;;;5051147;28;20483;-74
2021/04/07 11:04:12;;;;;;;2.50;1.40;;;6.10;1.00;;;;;;5056780;28;21010;-76
2021/04/07 11:06:40;;;;;;;2.70;1.10;;;6.30;1.00;;;;;;5060051;28;20472;-78
2021/04/07 11:09:07;;;;;;;2.03;1.50;;;6.40;1.00;;;;;;5053999;28;20977;-78
2021/04/07 11:11:40;;;;;;;1.40;1.07;;;6.60;1.00;;;;;;5059196;28;20492;-79
2021/04/07 11:14:08;;;;;;;2.67;1.50;;;6.60;1.00;;;;;;5058164;28;20468;-76
2021/04/07 11:16:36;;;;;;;1.20;1.10;;;6.50;1.00;;;;;;5058955;28;21004;-78
2021/04/07 11:19:15;;;;;;;2.90;2.10;;;6.50;1.00;;;;;;5052937;28;20460;-77
2021/04/07 11:21:42;;;;;;;1.73;1.03;;;6.60;1.00;;;;;;5043332;28;20489;-78
2021/04/07 11:24:10;;;;;;;1.13;1.03;;;6.60;1.00;;;;;;5050422;28;20483;-77
2021/04/07 11:26:37;;;;;;;2.20;0.90;;;6.60;1.00;;;;;;5049151;28;20814;-77
2021/04/07 11:29:06;;;;;;;2.20;1.20;;;6.90;1.00;;;;;;5060252;28;20453;-78
2021/04/07 11:31:34;;;;;;;1.50;1.10;;;6.70;1.00;;;;;;5055509;28;20503;-78
2021/04/07 11:34:06;;;;;;;2.80;1.20;;;6.80;1.00;;;;;;5041281;28;20453;-79
2021/04/07 11:36:49;;;;;;;2.20;1.00;;;6.50;1.00;;;;;;5059918;28;20882;-78
2021/04/07 11:39:39;;;;;;;1.27;1.10;;;6.60;1.00;;;;;;5058523;28;20471;-78
2021/04/07 11:42:16;;;;;;;2.60;1.30;;;6.60;1.00;;;;;;5057923;28;20477;-77
2021/04/07 11:44:43;;;;;;;1.40;1.00;;;6.40;1.00;;;;;;5047560;28;20489;-77
2021/04/07 11:47:11;;;;;;;1.97;1.27;;;6.40;1.00;;;;;;5051355;28;20469;-78
2021/04/07 11:49:38;;;;;;;4.63;1.20;;;6.40;1.00;;;;;;5051971;28;20458;-79
2021/04/07 11:52:07;;;;;;;2.00;1.00;;;6.40;1.00;;;;;;5060544;28;20485;-76
2021/04/07 11:54:34;;;;;;;2.87;1.20;;;6.50;1.00;;;;;;5051516;28;20491;-77
2021/04/07 11:57:04;;;;;;;2.83;1.47;;;6.40;1.00;;;;;;5055904;28;20839;-78
2021/04/07 11:59:32;;;;;;;4.37;1.23;;;6.30;1.00;;;;;;5053658;28;20456;-75
2021/04/07 12:02:01;;;;;;;2.13;1.17;;;6.40;1.00;;;;;;5059288;28;20567;-76
2021/04/07 12:04:30;;;;;;;1.63;1.10;;;6.50;1.00;;;;;;5061198;28;20968;-80
2021/04/07 12:06:57;;;;;;;1.67;1.40;;;6.60;1.00;;;;;;5047401;28;20466;-78
2021/04/07 12:09:25;;;;;;;5.10;1.23;;;6.50;1.00;;;;;;5043205;28;20462;-77
2021/04/07 12:11:53;;;;;;;1.90;1.10;;;6.30;1.00;;;;;;5042790;28;20848;-78
2021/04/07 12:14:20;;;;;;;1.97;1.00;;;6.50;1.00;;;;;;5045309;28;20452;-78
2021/04/07 12:16:48;;;;;;;3.67;0.87;;;6.50;1.00;;;;;;5057254;28;21011;-77
2021/04/07 12:19:15;;;;;;;2.73;1.50;;;6.50;1.00;;;;;;5046720;28;20464;-77
2021/04/07 12:21:43;;;;;;;1.13;1.07;;;6.40;1.00;;;;;;5047349;28;21015;-78
2021/04/07 12:24:10;;;;;;;1.93;1.10;;;6.50;1.00;;;;;;5049769;28;20492;-79
2021/04/07 12:26:38;;;;;;;2.53;1.30;;;6.60;1.00;;;;;;5047575;28;20481;-79
2021/04/07 12:29:05;;;;;;;1.10;1.00;;;6.80;1.00;;;;;;5049843;28;20465;-79
2021/04/07 12:31:33;;;;;;;1.93;1.20;;;6.60;1.00;;;;;;5052273;28;20486;-79
2021/04/07 12:34:00;;;;;;;3.00;1.30;;;6.60;1.00;;;;;;5052632;28;20547;-77
2021/04/07 12:36:28;;;;;;;2.50;1.40;;;6.60;1.00;;;;;;5050376;28;20469;-81
2021/04/07 12:38:57;;;;;;;3.30;1.40;;;6.60;1.00;;;;;;5043998;28;20998;-79
2021/04/07 12:41:28;;;;;;;2.93;1.47;;;6.70;1.00;;;;;;5045487;28;20464;-78
2021/04/07 12:43:56;;;;;;;1.43;1.00;;;7.00;1.00;;;;;;5046458;28;20475;-78
2021/04/07 12:46:24;;;;;;;3.90;1.00;;;7.00;1.00;;;;;;5050719;28;20476;-79
2021/04/07 12:48:51;;;;;;;1.93;1.53;;;7.10;1.00;;;;;;5049761;28;20463;-79
2021/04/07 12:51:21;;;;;;;4.77;1.50;;;7.10;1.00;;;;;;5048554;28;20478;-79
2021/04/07 12:53:50;;;;;;;1.60;1.20;;;7.10;1.00;;;;;;5057157;28;20915;-80
2021/04/07 12:56:36;;;;;;;3.17;1.10;;;7.10;1.00;;;;;;5051464;28;20493;-79
2021/04/07 12:59:04;;;;;;;2.93;0.93;;;7.10;1.00;;;;;;5043379;28;20457;-77
2021/04/07 13:01:31;;;;;;;2.20;1.10;;;7.00;1.00;;;;;;5045243;28;20478;-79
2021/04/07 13:03:59;;;;;;;5.37;1.63;;;7.00;1.00;;;;;;5053594;28;20478;-78
2021/04/07 13:06:27;;;;;;;3.70;1.63;;;7.00;1.00;;;;;;5044620;28;20919;-79
2021/04/07 13:08:54;;;;;;;1.10;0.97;;;6.90;1.00;;;;;;5054669;28;20468;-78
2021/04/07 13:11:21;;;;;;;3.20;1.00;;;6.90;1.00;;;;;;5046307;28;20958;-78
2021/04/07 13:13:49;;;;;;;1.87;1.47;;;6.90;1.00;;;;;;5059853;28;20467;-79
2021/04/07 13:16:17;;;;;;;3.80;1.17;;;6.80;1.00;;;;;;5058702;28;20727;-79